Strona główna
METAR-TAF:

METAR-TAF

Lotnisko :

Port lotniczy Winnipeg

Winnipeg, Manitoba, Kanada

Szerokość geograficzna: 49-54N, Długość geograficzna: 097-14W, wysokość: 239 m

Aktualna obserwacja pogody

Raport powstał 51 minut temu, godzina 00:00 UTC
Wiatr 7 kt od południowy zachód
Temperatura 26°C
Wilgotność 42%
Ciśnienie 1018 hPa
Widzialność: 24.1 km
bezchmurnie

METAR: CYWG 180000Z 23007KT 15SM SKC 26/12 A3006 RMK SLP182 DENSITY ALT 2100FT

czas: 19:51 (00:51 UTC)

Prognoza

Raport powstał 1 godzina i 13 minut temu, godzina 23:38 UTC
Prognoza ważna od 18 godzina 00 UTC do 18 godzina 24 UTC
Wiatr 10 kt od południowy zachód
Widzialność: 10 km
bezchmurnie
Od 18 godzina 1800 UTC
Wiatr 15 kt od południowo-południowy zachód
Widzialność: 10 km
Przerywane chmury na wysokości 25000 ft

TAF: CYWG 172338Z 1800/1824 22010KT P6SM SKC FM181800 20015KT P6SM BKN250 RMK NXT FCST BY 180600Z

Obserwacja i prognoza pogody dla ponad 4000 lotnisk (raport METAR i TAF).

Dostępne stacje oznaczono żółtymi i czerwonymi punktami na mapie.

Najedź kursorem aby zobaczyć nazwę stacji.

Kliknij aby zobaczyć obserwacje i prognozy pogody.

Aby zmienić mapę: kliknij na zielony przycisk z czarnym krzyżykiem, aby powiększyć; na zielony przycisk z myślnikiem, aby pomniejszyć; na zielone strzałki, aby przejść do map sąsiednich.


METAR-TAF: